AirNav  
 
 1169 users online  

16NJ Hummel Seaplane Base
Island Heights, New Jersey, USA

GOING TO ISLAND HEIGHTS?


FAA INFORMATION EFFECTIVE 01 FEBRUARY 2018

Location

FAA Identifier: 16NJ
Lat/Long: 39-56-14.4250N / 074-08-08.4990W
39-56.240417N / 074-08.141650W
39.9373403 / -74.1356942
(estimated)
Elevation: 0 ft. / 0 m (estimated)
Variation: 12W (1985)
From city: 1 mile S of ISLAND HEIGHTS, NJ
Time zone: UTC -5 (UTC -4 during Daylight Saving Time)
Zip code: 08741

Seaplane Base Operations

Seaplane Base use: Private use. Permission required prior to landing
Activation date: 11/1980
Control tower: no
ARTCC: NEW YORK CENTER
FSS: MILLVILLE FLIGHT SERVICE STATION
Attendance: UNATNDD
Wind indicator: no
Segmented circle: no

Seaplane Base Communications

WX AWOS-3PT at MJX (7 nm W): 119.875 (732-797-2542)
WX AWOS-AV at N12 (8 nm N): 122.8 (732-363-6471)
WX AWOS-3PT at BLM (15 nm N): 121.625 (732-938-3330)

Nearby radio navigation aids

VOR radial/distance  VOR name  Freq  Var
CYNr072/15.4COYLE VORTAC113.4010W
GXUr114/21.6MC GUIRE VORTAC110.6012W
COLr188/22.5COLTS NECK VOR/DME115.4011W
RBVr144/22.9ROBBINSVILLE VORTAC113.8010W
ACYr045/35.3ATLANTIC CITY VORTAC108.6010W

 
NDB name  Hdg/Dist  Freq  Var  ID
LAKEHURST136/11.239611WNEL -. . .-..
BRIDGE209/39.641412WOGY --- --. -.--

Seaplane Base Services

Runway Information

Runway ALL/WAY

Dimensions: 15000 x 4000 ft. / 4572 x 1219 m
Surface: water
RUNWAY ALL  RUNWAY WAY
Traffic pattern: leftleft

Seaplane Base Ownership and Management from official FAA records

Ownership: Privately-owned
Owner: WILLIAM T HUMMEL
ONE TIMBER FARE
SPRING HOUSE, PA 19477
Phone 215-628-4444

Seaplane Base Operational Statistics

Aircraft based on the field: 1
Single engine airplanes: 1
    

Instrument Procedures

There are no published instrument procedures at 16NJ.

Some nearby airports with instrument procedures:

KMJX - Ocean County Airport (7 nm W)
N12 - Lakewood Airport (8 nm N)
KNEL - Lakehurst Maxfield Field Airport (12 nm NW)
KBLM - Monmouth Executive Airport (15 nm N)
31E - Eagles Nest Airport (18 nm SW)
 
Loc | Ops | Rwys | IFR | FBO | Links
Com | Nav | Svcs | Stats | Notes

AirNav Hotels Sweepstakes
 
Area around 16NJ (Hummel Seaplane Base)
 
Road maps at: MapQuest Bing Google
 
Aerial photo
WARNING: Photo may not be current or correct
Aerial photo of 16NJ (Hummel Seaplane Base)
Photo taken 22-Oct-2006
from the east looking west

Do you have a better or more recent aerial photo of Hummel Seaplane Base that you would like to share? If so, please send us your photo.

 
Sectional chart

 
Airport distance calculator
Flying to Hummel Seaplane Base? Find the distance to fly.

From to 16NJ

Sunrise and sunset
Times for 25-Feb-2018
 Local
(UTC-5)
 Zulu
(UTC)
Morning civil twilight06:1011:10
Sunrise06:3711:37
Sunset17:4322:43
Evening civil twilight18:1023:10

Current date and time
Zulu (UTC)  25-Feb-2018 22:15:24
Local (UTC-5)  25-Feb-2018 17:15:24
 
METAR
KMJX 
7nm W 
AWOS-3 119.875 732-244-4450
252056Z AUTO 31006KT 10SM OVC004 08/07 A2999 RMK AO2 SLP160 6//// T00780072 53028 PNO $
KNEL 
10nm NW 
252200Z AUTO VRB03KT 3/4SM OVC004 08/08 A2998 RMK AO2 SFC VIS 7 SLP150 T00780078 PNO $
KBLM 
14nm N 
AWOS-3 121.625 732-938-3330
252156Z AUTO 34006KT 6SM BR OVC003 06/06 A2999 RMK AO2 SLP159 T00610056
TAF
KWRI 
21nm W 
252017Z 2520/2624 03006KT 9999 OVC004 510202 QNH2991INS BECMG 2523/2601 VRB06KT 9999 BKN010 OVC100 QNH2993INS BECMG 2601/2603 31006KT 9999 FEW012 BKN150 QNH2995INS BECMG 2617/2618 33006KT 9999 SCT150 QNH3009INS TX11/2521Z TN05/2610Z
NOTAMs
Click for the latest NOTAMs
NOTAMs are issued by the DoD/FAA and will open in a separate window not controlled by AirNav.

 

 
 

Would you like to see your business listed on this page?

 If your business provides an interesting product or service to pilots, flight crews, aircraft, or users of the Hummel Seaplane Base, you should consider listing it here.  To start the listing process, click on the button below
 
Add a business
 

Other Pages about Hummel Seaplane Base

Update a link
 
Copyright © AirNav, LLC. All rights reserved. Privacy Policy  Contact